Time;durP1;ratioP1;P1;durP2;ratioP2;P2;SDS_P1;SDS_P2;PMS_P1;PMS_P2;Temp;Humidity;BMP_temperature;BMP_pressure;BME280_temperature;BME280_humidity;BME280_pressure;Samples;Min_cycle;Max_cycle;Signal;HPM_P1;HPM_P2
2022/03/13 00:00:11;;;;;;;;;;;7.50;99.90;;;;;;5092054;28;20031;-52
2022/03/13 00:02:37;;;;;;;;;;;7.50;99.90;;;;;;5093349;28;20389;-52
2022/03/13 00:05:04;;;;;;;;;;;7.50;99.90;;;;;;5094677;28;20270;-53
2022/03/13 00:07:29;;;;;;;;;;;7.40;99.90;;;;;;5095563;28;19915;-52
2022/03/13 00:09:55;;;;;;;;;;;7.40;99.90;;;;;;5095767;28;19920;-52
2022/03/13 00:12:31;;;;;;;;;;;7.30;99.90;;;;;;5095067;28;20270;-51
2022/03/13 00:14:57;;;;;;;;;;;7.30;99.90;;;;;;5094307;28;19919;-50
2022/03/13 00:17:27;;;;;;;;;;;7.30;99.90;;;;;;5095488;28;19908;-51
2022/03/13 00:19:54;;;;;;;;;;;7.20;99.90;;;;;;5094958;28;20248;-50
2022/03/13 00:22:19;;;;;;;;;;;7.30;99.90;;;;;;5095423;28;19912;-53
2022/03/13 00:24:45;;;;;;;;;;;7.30;99.90;;;;;;5095431;28;19930;-51
2022/03/13 00:27:10;;;;;;;;;;;7.30;99.90;;;;;;5094815;28;19958;-50
2022/03/13 00:29:36;;;;;;;;;;;7.30;99.90;;;;;;5083755;28;19960;-51
2022/03/13 00:32:03;;;;;;;;;;;7.30;99.90;;;;;;5075117;28;19908;-53
2022/03/13 00:34:28;;;;;;;;;;;7.30;99.90;;;;;;5074304;28;19924;-50
2022/03/13 00:36:54;;;;;;;;;;;7.30;99.90;;;;;;5075094;28;20263;-52
2022/03/13 00:39:19;;;;;;;;;;;7.30;99.90;;;;;;5074718;28;20363;-52
2022/03/13 00:41:46;;;;;;;;;;;7.30;99.90;;;;;;5075371;28;19944;-51
2022/03/13 00:44:12;;;;;;;;;;;7.30;99.90;;;;;;5075584;28;19908;-52
2022/03/13 00:46:38;;;;;;;;;;;7.30;99.90;;;;;;5074810;28;19920;-53
2022/03/13 00:49:04;;;;;;;;;;;7.30;99.90;;;;;;5075375;28;19909;-53
2022/03/13 00:51:29;;;;;;;;;;;7.30;99.90;;;;;;5075204;28;19923;-51
2022/03/13 00:53:55;;;;;;;;;;;7.30;99.90;;;;;;5074786;28;19965;-54
2022/03/13 00:56:20;;;;;;;;;;;7.30;99.90;;;;;;5075470;28;19995;-54
2022/03/13 00:58:46;;;;;;;;;;;7.20;99.90;;;;;;5078772;28;19915;-50
2022/03/13 01:01:11;;;;;;;;;;;7.20;99.90;;;;;;5094977;28;19912;-50
2022/03/13 01:03:37;;;;;;;;;;;7.20;99.90;;;;;;5095267;28;19957;-50
2022/03/13 01:06:06;;;;;;;;;;;7.30;99.90;;;;;;5095275;28;19913;-49
2022/03/13 01:08:32;;;;;;;;;;;7.30;99.90;;;;;;5094763;28;20271;-52
2022/03/13 01:10:58;;;;;;;;;;;7.20;99.90;;;;;;5095122;28;19916;-52
2022/03/13 01:13:24;;;;;;;;;;;7.30;99.90;;;;;;5095204;28;19961;-52
2022/03/13 01:15:54;;;;;;;;;;;7.30;99.90;;;;;;5094598;28;20289;-53
2022/03/13 01:18:19;;;;;;;;;;;7.30;99.90;;;;;;5089341;28;19913;-52
2022/03/13 01:20:45;;;;;;;;;;;7.30;99.90;;;;;;5074891;28;19913;-52
2022/03/13 01:23:11;;;;;;;;;;;7.30;99.90;;;;;;5074112;28;19916;-51
2022/03/13 01:25:38;;;;;;;;;;;7.30;99.90;;;;;;5074475;28;19908;-50
2022/03/13 01:28:04;;;;;;;;;;;7.30;99.90;;;;;;5074777;28;19909;-53
2022/03/13 01:30:29;;;;;;;;;;;7.30;99.90;;;;;;5074063;28;19920;-51
2022/03/13 01:32:55;;;;;;;;;;;7.30;99.90;;;;;;5074487;28;19915;-52
2022/03/13 01:35:22;;;;;;;;;;;7.30;99.90;;;;;;5074222;28;19920;-51
2022/03/13 01:37:47;;;;;;;;;;;7.30;99.90;;;;;;5073849;28;19915;-53
2022/03/13 01:40:14;;;;;;;;;;;7.40;99.90;;;;;;5074346;28;19909;-52
2022/03/13 01:42:40;;;;;;;;;;;7.30;99.90;;;;;;5073761;28;20363;-50
2022/03/13 01:45:07;;;;;;;;;;;7.30;99.90;;;;;;5074346;28;19915;-54
2022/03/13 01:47:33;;;;;;;;;;;7.30;99.90;;;;;;5074095;28;20352;-53
2022/03/13 01:49:58;;;;;;;;;;;7.30;99.90;;;;;;5091371;28;19927;-53
2022/03/13 01:52:25;;;;;;;;;;;7.30;99.90;;;;;;5094456;28;19915;-53
2022/03/13 01:54:51;;;;;;;;;;;7.40;99.90;;;;;;5094272;28;19914;-52
2022/03/13 01:57:18;;;;;;;;;;;7.40;99.90;;;;;;5093847;28;19998;-54
2022/03/13 01:59:43;;;;;;;;;;;7.40;99.90;;;;;;5094311;28;20004;-52
2022/03/13 02:02:08;;;;;;;;;;;7.50;99.90;;;;;;5094195;28;20354;-53
2022/03/13 02:04:34;;;;;;;;;;;7.50;99.90;;;;;;5093653;28;19908;-50
2022/03/13 02:06:59;;;;;;;;;;;7.60;99.90;;;;;;5094233;28;19908;-53
2022/03/13 02:09:28;;;;;;;;;;;7.60;99.90;;;;;;5094010;28;19951;-52
2022/03/13 02:11:54;;;;;;;;;;;7.70;99.90;;;;;;5093140;28;19913;-53
2022/03/13 02:14:22;;;;;;;;;;;7.70;99.90;;;;;;5094085;28;20006;-50
2022/03/13 02:16:48;;;;;;;;;;;7.80;99.90;;;;;;5093990;28;19995;-53
2022/03/13 02:19:14;;;;;;;;;;;7.90;99.90;;;;;;5084311;28;20007;-51
2022/03/13 02:21:44;;;;;;;;;;;7.90;99.90;;;;;;5091424;28;19998;-52
2022/03/13 02:24:13;;;;;;;;;;;8.00;99.90;;;;;;5094050;28;19915;-51
2022/03/13 02:26:42;;;;;;;;;;;8.10;99.90;;;;;;5093282;28;19969;-54
2022/03/13 02:29:10;;;;;;;;;;;8.10;99.90;;;;;;5093828;28;20366;-53
2022/03/13 02:31:37;;;;;;;;;;;8.10;99.90;;;;;;5093610;28;20365;-53
2022/03/13 02:34:03;;;;;;;;;;;8.10;99.90;;;;;;5092993;28;19927;-51
2022/03/13 02:36:28;;;;;;;;;;;8.20;99.90;;;;;;5093611;28;19912;-53
2022/03/13 02:38:54;;;;;;;;;;;8.20;99.90;;;;;;5092704;28;19908;-53
2022/03/13 02:41:19;;;;;;;;;;;8.20;99.90;;;;;;5093678;28;19915;-51
2022/03/13 02:43:45;;;;;;;;;;;8.20;99.90;;;;;;5093550;28;19908;-51
2022/03/13 02:46:19;;;;;;;;;;;8.20;99.90;;;;;;5093146;28;19997;-54
2022/03/13 02:48:45;;;;;;;;;;;8.20;99.90;;;;;;5082571;28;19999;-52
2022/03/13 02:51:10;;;;;;;;;;;8.10;99.90;;;;;;5073313;28;20015;-54
2022/03/13 02:53:36;;;;;;;;;;;8.10;99.90;;;;;;5072822;28;19932;-53
2022/03/13 02:56:01;;;;;;;;;;;8.10;99.90;;;;;;5073347;28;19909;-53
2022/03/13 02:58:26;;;;;;;;;;;8.00;99.90;;;;;;5074341;28;20018;-51
2022/03/13 03:00:53;;;;;;;;;;;8.00;99.90;;;;;;5072688;28;19916;-52
2022/03/13 03:03:19;;;;;;;;;;;8.00;99.90;;;;;;5073363;28;19965;-52
2022/03/13 03:05:45;;;;;;;;;;;8.00;99.90;;;;;;5073278;28;19908;-53
2022/03/13 03:08:11;;;;;;;;;;;7.90;99.90;;;;;;5072735;28;20278;-54
2022/03/13 03:10:38;;;;;;;;;;;7.90;99.90;;;;;;5073168;28;19916;-52
2022/03/13 03:13:03;;;;;;;;;;;7.90;99.90;;;;;;5073131;28;19996;-54
2022/03/13 03:15:29;;;;;;;;;;;7.80;99.90;;;;;;5072582;28;19948;-52
2022/03/13 03:17:55;;;;;;;;;;;7.80;99.90;;;;;;5076337;28;19920;-52
2022/03/13 03:20:21;;;;;;;;;;;7.80;99.90;;;;;;5093251;28;19908;-53
2022/03/13 03:22:47;;;;;;;;;;;7.70;99.90;;;;;;5092600;28;19912;-53
2022/03/13 03:25:13;;;;;;;;;;;7.70;99.90;;;;;;5093328;28;20007;-51
2022/03/13 03:27:41;;;;;;;;;;;7.70;99.90;;;;;;5093199;28;19965;-53
2022/03/13 03:30:07;;;;;;;;;;;7.60;99.90;;;;;;5092486;28;20526;-52
2022/03/13 03:32:32;;;;;;;;;;;7.50;99.90;;;;;;5093113;28;19908;-54
2022/03/13 03:34:58;;;;;;;;;;;7.50;99.90;;;;;;5092745;28;19924;-52
2022/03/13 03:37:24;;;;;;;;;;;7.40;99.90;;;;;;5092661;28;20267;-53
2022/03/13 03:39:49;;;;;;;;;;;7.30;99.90;;;;;;5092984;28;19912;-54
2022/03/13 03:42:15;;;;;;;;;;;7.30;99.90;;;;;;5092461;28;19912;-55
2022/03/13 03:44:40;;;;;;;;;;;7.30;99.90;;;;;;5092872;28;19915;-53
2022/03/13 03:47:05;;;;;;;;;;;7.20;99.90;;;;;;5093050;28;19916;-54
2022/03/13 03:49:34;;;;;;;;;;;7.10;99.90;;;;;;5092986;28;19919;-55
2022/03/13 03:51:59;;;;;;;;;;;7.10;99.90;;;;;;5096865;28;19912;-55
2022/03/13 03:54:25;;;;;;;;;;;7.10;99.90;;;;;;5096749;28;20301;-55
2022/03/13 03:56:51;;;;;;;;;;;7.00;99.90;;;;;;5094500;28;20006;-54
2022/03/13 03:59:19;;;;;;;;;;;7.00;99.90;;;;;;5096735;28;20011;-54
2022/03/13 04:01:45;;;;;;;;;;;6.90;99.90;;;;;;5096532;28;20011;-55
2022/03/13 04:04:10;;;;;;;;;;;6.90;99.90;;;;;;5095944;28;20006;-53
2022/03/13 04:06:39;;;;;;;;;;;6.80;99.90;;;;;;5096452;28;19908;-54
2022/03/13 04:09:05;;;;;;;;;;;6.80;99.90;;;;;;5096328;28;19951;-54
2022/03/13 04:11:31;;;;;;;;;;;6.80;99.90;;;;;;5095810;28;19960;-51
2022/03/13 04:13:57;;;;;;;;;;;6.70;99.90;;;;;;5096379;28;19958;-53
2022/03/13 04:16:22;;;;;;;;;;;6.70;99.90;;;;;;5096393;28;19908;-51
2022/03/13 04:18:48;;;;;;;;;;;6.60;99.90;;;;;;5085486;28;19965;-52
2022/03/13 04:21:13;;;;;;;;;;;6.60;99.90;;;;;;5076130;28;20347;-53
2022/03/13 04:23:39;;;;;;;;;;;6.60;99.90;;;;;;5075999;28;19967;-55
2022/03/13 04:26:04;;;;;;;;;;;6.50;99.90;;;;;;5075438;28;20347;-55
2022/03/13 04:28:30;;;;;;;;;;;6.50;99.90;;;;;;5075939;28;19915;-56
2022/03/13 04:30:58;;;;;;;;;;;6.50;99.90;;;;;;5075692;28;19917;-55
2022/03/13 04:33:25;;;;;;;;;;;6.50;99.90;;;;;;5075107;28;19908;-56
2022/03/13 04:35:52;;;;;;;;;;;6.50;99.90;;;;;;5075798;28;19916;-55
2022/03/13 04:38:17;;;;;;;;;;;6.40;99.90;;;;;;5082781;28;19918;-55
2022/03/13 04:40:43;;;;;;;;;;;6.40;99.90;;;;;;5095200;28;20007;-54
2022/03/13 04:43:08;;;;;;;;;;;6.30;99.90;;;;;;5095760;28;19912;-56
2022/03/13 04:45:34;;;;;;;;;;;6.30;99.90;;;;;;5095310;28;19908;-56
2022/03/13 04:48:00;;;;;;;;;;;6.20;99.90;;;;;;5095621;28;19908;-55
2022/03/13 04:50:26;;;;;;;;;;;6.20;99.90;;;;;;5095836;28;19969;-55
2022/03/13 04:52:51;;;;;;;;;;;6.10;99.90;;;;;;5095032;28;19912;-55
2022/03/13 04:55:18;;;;;;;;;;;6.10;99.90;;;;;;5095564;28;20508;-55
2022/03/13 04:57:43;;;;;;;;;;;6.00;99.90;;;;;;5090333;28;19912;-55
2022/03/13 05:00:09;;;;;;;;;;;5.90;99.90;;;;;;5074115;28;19908;-55
2022/03/13 05:02:35;;;;;;;;;;;5.90;99.90;;;;;;5075122;28;19936;-54
2022/03/13 05:05:01;;;;;;;;;;;5.90;99.90;;;;;;5075065;28;19912;-55
2022/03/13 05:07:26;;;;;;;;;;;5.90;99.90;;;;;;5074553;28;19908;-56
2022/03/13 05:09:52;;;;;;;;;;;5.90;99.90;;;;;;5074905;28;19924;-55
2022/03/13 05:12:21;;;;;;;;;;;5.90;99.90;;;;;;5075072;28;19909;-56
2022/03/13 05:14:47;;;;;;;;;;;5.80;99.90;;;;;;5074362;28;20382;-56
2022/03/13 05:17:13;;;;;;;;;;;5.80;99.90;;;;;;5074950;28;19909;-55
2022/03/13 05:19:39;;;;;;;;;;;5.80;99.90;;;;;;5074805;28;19920;-55
2022/03/13 05:22:04;;;;;;;;;;;5.80;99.90;;;;;;5074258;28;19988;-54
2022/03/13 05:24:30;;;;;;;;;;;5.80;99.90;;;;;;5074718;28;20363;-55
2022/03/13 05:26:55;;;;;;;;;;;5.70;99.90;;;;;;5074717;28;19919;-55
2022/03/13 05:29:21;;;;;;;;;;;5.70;99.90;;;;;;5075297;28;20511;-55
2022/03/13 05:31:46;;;;;;;;;;;5.70;99.90;;;;;;5074582;28;19924;-55
2022/03/13 05:34:12;;;;;;;;;;;5.70;99.90;;;;;;5074295;28;19920;-55
2022/03/13 05:36:38;;;;;;;;;;;5.70;99.90;;;;;;5074042;28;20279;-55
2022/03/13 05:39:03;;;;;;;;;;;5.60;99.90;;;;;;5074448;28;19931;-56
2022/03/13 05:41:30;;;;;;;;;;;5.60;99.90;;;;;;5074472;28;19920;-55
2022/03/13 05:43:56;;;;;;;;;;;5.60;99.90;;;;;;5073776;28;19909;-55
2022/03/13 05:46:21;;;;;;;;;;;5.60;99.90;;;;;;5074427;28;19909;-55
2022/03/13 05:48:47;;;;;;;;;;;5.60;99.90;;;;;;5073807;28;19915;-55
2022/03/13 05:51:12;;;;;;;;;;;5.60;99.90;;;;;;5074000;28;19924;-54
2022/03/13 05:53:38;;;;;;;;;;;5.70;99.90;;;;;;5073932;28;19909;-55
2022/03/13 05:56:03;;;;;;;;;;;5.70;99.90;;;;;;5073646;28;19958;-55
2022/03/13 05:58:29;;;;;;;;;;;5.70;99.90;;;;;;5084511;28;19912;-56
2022/03/13 06:01:03;;;;;;;;;;;5.70;99.90;;;;;;5094242;28;19919;-54
2022/03/13 06:03:29;;;;;;;;;;;5.80;99.90;;;;;;5093809;28;19965;-55
2022/03/13 06:05:55;;;;;;;;;;;5.80;99.90;;;;;;5093582;28;19908;-56
2022/03/13 06:08:20;;;;;;;;;;;5.80;99.90;;;;;;5093133;28;20314;-55
2022/03/13 06:10:46;;;;;;;;;;;5.80;99.90;;;;;;5093665;28;19920;-55
2022/03/13 06:13:12;;;;;;;;;;;5.80;99.90;;;;;;5093218;28;20396;-54
2022/03/13 06:15:38;;;;;;;;;;;5.80;99.90;;;;;;5094020;28;19908;-56
2022/03/13 06:18:03;;;;;;;;;;;5.80;99.90;;;;;;5084001;28;19915;-56
2022/03/13 06:20:29;;;;;;;;;;;5.80;99.90;;;;;;5073760;28;19916;-56
2022/03/13 06:22:54;;;;;;;;;;;5.90;99.90;;;;;;5073520;28;20301;-55
2022/03/13 06:25:20;;;;;;;;;;;5.90;99.90;;;;;;5073176;28;19913;-55
2022/03/13 06:27:45;;;;;;;;;;;5.90;99.90;;;;;;5073656;28;19909;-55
2022/03/13 06:30:16;;;;;;;;;;;6.00;99.90;;;;;;5073618;28;19916;-56
2022/03/13 06:32:43;;;;;;;;;;;6.00;99.90;;;;;;5072850;28;19909;-55
2022/03/13 06:35:09;;;;;;;;;;;6.10;99.90;;;;;;5073277;28;19961;-56
2022/03/13 06:37:35;;;;;;;;;;;6.10;99.90;;;;;;5080563;28;19919;-55
2022/03/13 06:40:01;;;;;;;;;;;6.20;99.90;;;;;;5093386;28;19908;-56
2022/03/13 06:42:27;;;;;;;;;;;6.20;99.90;;;;;;5093211;28;19912;-55
2022/03/13 06:44:53;;;;;;;;;;;6.30;99.90;;;;;;5093581;28;19927;-55
2022/03/13 06:47:18;;;;;;;;;;;6.30;99.90;;;;;;5092878;28;19916;-54
2022/03/13 06:49:44;;;;;;;;;;;6.40;99.90;;;;;;5092947;28;19908;-55
2022/03/13 06:52:09;;;;;;;;;;;6.40;99.90;;;;;;5092837;28;19912;-56
2022/03/13 06:54:35;;;;;;;;;;;6.40;99.90;;;;;;5092389;28;19908;-56
2022/03/13 06:57:01;;;;;;;;;;;6.50;99.90;;;;;;5092228;28;19914;-54
2022/03/13 06:59:26;;;;;;;;;;;6.60;99.90;;;;;;5092110;28;19927;-55
2022/03/13 07:01:52;;;;;;;;;;;6.70;99.90;;;;;;5092850;28;19991;-55
2022/03/13 07:04:17;;;;;;;;;;;6.70;99.90;;;;;;5092449;28;19948;-56
2022/03/13 07:06:43;;;;;;;;;;;6.80;99.90;;;;;;5087629;28;19919;-56
2022/03/13 07:09:09;;;;;;;;;;;6.80;99.90;;;;;;5092844;28;20413;-55
2022/03/13 07:11:35;;;;;;;;;;;6.80;99.90;;;;;;5092425;28;20401;-56
2022/03/13 07:14:02;;;;;;;;;;;6.90;99.90;;;;;;5092162;28;19931;-56
2022/03/13 07:16:28;;;;;;;;;;;6.90;99.90;;;;;;5092391;28;20407;-56
2022/03/13 07:18:53;;;;;;;;;;;6.90;99.90;;;;;;5092525;28;19916;-55
2022/03/13 07:21:19;;;;;;;;;;;6.90;99.90;;;;;;5092182;28;19915;-57
2022/03/13 07:23:44;;;;;;;;;;;7.00;99.90;;;;;;5093700;28;19908;-55
2022/03/13 07:26:10;;;;;;;;;;;7.00;99.90;;;;;;5096748;28;19908;-56
2022/03/13 07:28:36;;;;;;;;;;;7.00;99.90;;;;;;5095820;28;20052;-55
2022/03/13 07:31:01;;;;;;;;;;;7.10;99.90;;;;;;5076441;28;20318;-56
2022/03/13 07:33:27;;;;;;;;;;;7.10;99.90;;;;;;5091842;28;19920;-57
2022/03/13 07:35:55;;;;;;;;;;;7.20;99.90;;;;;;5116450;28;19969;-56
2022/03/13 07:38:21;;;;;;;;;;;7.20;99.90;;;;;;5105930;28;19920;-57
2022/03/13 07:40:46;;;;;;;;;;;7.30;99.90;;;;;;5095764;28;19912;-55
2022/03/13 07:43:12;;;;;;;;;;;7.30;99.90;;;;;;5095335;28;19908;-56
2022/03/13 07:45:38;;;;;;;;;;;7.40;99.90;;;;;;5094795;28;19995;-57
2022/03/13 07:48:04;;;;;;;;;;;7.50;99.90;;;;;;5095495;28;20008;-55
2022/03/13 07:50:29;;;;;;;;;;;7.60;99.90;;;;;;5094316;28;19920;-55
2022/03/13 07:52:55;;;;;;;;;;;7.70;99.90;;;;;;5095333;28;20286;-56
2022/03/13 07:55:21;;;;;;;;;;;7.80;99.90;;;;;;5094973;28;19919;-56
2022/03/13 07:57:47;;;;;;;;;;;7.90;99.90;;;;;;5091784;28;20007;-57
2022/03/13 08:00:15;;;;;;;;;;;8.00;99.90;;;;;;5095342;28;20004;-56
2022/03/13 08:02:44;;;;;;;;;;;8.00;99.90;;;;;;5093224;28;19916;-55
2022/03/13 08:05:10;;;;;;;;;;;8.00;99.90;;;;;;5074982;28;19908;-56
2022/03/13 08:07:36;;;;;;;;;;;8.10;99.90;;;;;;5074709;28;19909;-55
2022/03/13 08:10:01;;;;;;;;;;;8.20;99.90;;;;;;5074093;28;19939;-55
2022/03/13 08:12:27;;;;;;;;;;;8.30;99.90;;;;;;5077359;28;19973;-56
2022/03/13 08:14:52;;;;;;;;;;;8.40;99.90;;;;;;5093793;28;19961;-55
2022/03/13 08:17:18;;;;;;;;;;;8.50;99.90;;;;;;5093205;28;19912;-55
2022/03/13 08:19:43;;;;;;;;;;;8.60;99.90;;;;;;5093820;28;19919;-56
2022/03/13 08:22:09;;;;;;;;;;;8.60;99.90;;;;;;5093726;28;19908;-55
2022/03/13 08:24:34;;;;;;;;;;;8.60;99.90;;;;;;5086535;28;20363;-55
2022/03/13 08:27:00;;;;;;;;;;;8.60;99.90;;;;;;5093862;28;19908;-55
2022/03/13 08:29:25;;;;;;;;;;;8.70;99.90;;;;;;5093865;28;19990;-54
2022/03/13 08:31:51;;;;;;;;;;;8.60;99.10;;;;;;5093976;28;19924;-54
2022/03/13 08:34:17;;;;;;;;;;;8.70;99.90;;;;;;5095116;28;19927;-55
2022/03/13 08:36:46;;;;;;;;;;;8.70;99.90;;;;;;5094301;28;20402;-55
2022/03/13 08:39:11;;;;;;;;;;;8.80;99.90;;;;;;5094688;28;19908;-55
2022/03/13 08:41:37;;;;;;;;;;;8.90;99.90;;;;;;5094966;28;19961;-55
2022/03/13 08:44:03;;;;;;;;;;;8.90;99.90;;;;;;5095150;28;19909;-55
2022/03/13 08:46:28;;;;;;;;;;;8.90;99.90;;;;;;5094284;28;19919;-55
2022/03/13 08:48:54;;;;;;;;;;;9.00;99.90;;;;;;5094933;28;19908;-56
2022/03/13 08:51:21;;;;;;;;;;;9.10;99.90;;;;;;5095000;28;19916;-56
2022/03/13 08:53:47;;;;;;;;;;;9.30;99.90;;;;;;5080498;28;19920;-56
2022/03/13 08:56:13;;;;;;;;;;;9.40;94.30;;;;;;5074815;28;19908;-55
2022/03/13 08:58:42;;;;;;;;;;;9.60;98.50;;;;;;5074293;28;20003;-55
2022/03/13 09:01:08;;;;;;;;;;;9.70;98.80;;;;;;5074433;28;19912;-55
2022/03/13 09:03:34;;;;;;;;;;;9.80;98.00;;;;;;5074440;28;19908;-55
2022/03/13 09:05:59;;;;;;;;;;;9.80;97.00;;;;;;5073815;28;20355;-55
2022/03/13 09:08:25;;;;;;;;;;;10.00;97.80;;;;;;5074306;28;20286;-56
2022/03/13 09:10:52;;;;;;;;;;;10.10;95.80;;;;;;5074391;28;19924;-56
2022/03/13 09:13:18;;;;;;;;;;;10.20;95.40;;;;;;5073869;28;19927;-55
2022/03/13 09:15:43;;;;;;;;;;;10.30;93.30;;;;;;5074075;28;19908;-55
2022/03/13 09:18:08;;;;;;;;;;;10.40;93.30;;;;;;5074153;28;19921;-55
2022/03/13 09:20:34;;;;;;;;;;;10.50;92.20;;;;;;5073489;28;19915;-55
2022/03/13 09:22:59;;;;;;;;;;;10.70;91.20;;;;;;5075247;28;20001;-56
2022/03/13 09:25:25;;;;;;;;;;;10.80;88.50;;;;;;5073821;28;19908;-56
2022/03/13 09:27:52;;;;;;;;;;;10.80;90.30;;;;;;5073098;28;19909;-56
2022/03/13 09:30:17;;;;;;;;;;;11.00;86.60;;;;;;5086201;28;19947;-56
2022/03/13 09:32:43;;;;;;;;;;;11.00;85.20;;;;;;5093892;28;20366;-55
2022/03/13 09:35:10;;;;;;;;;;;11.10;87.70;;;;;;5092630;28;19967;-56
2022/03/13 09:37:35;;;;;;;;;;;11.10;88.30;;;;;;5093096;28;19934;-56
2022/03/13 09:40:01;;;;;;;;;;;11.20;89.50;;;;;;5093415;28;19979;-56
2022/03/13 09:42:26;;;;;;;;;;;11.40;87.10;;;;;;5092682;28;19978;-56
2022/03/13 09:44:51;;;;;;;;;;;11.50;87.00;;;;;;5093215;28;20333;-55
2022/03/13 09:47:17;;;;;;;;;;;11.60;64.80;;;;;;5092974;28;19912;-55
2022/03/13 09:49:43;;;;;;;;;;;11.70;76.60;;;;;;5092412;28;19908;-55
2022/03/13 09:52:09;;;;;;;;;;;11.80;70.10;;;;;;5093029;28;19913;-54
2022/03/13 09:54:34;;;;;;;;;;;12.00;80.30;;;;;;5089491;28;19957;-55
2022/03/13 09:57:04;;;;;;;;;;;12.10;64.30;;;;;;5092550;28;19912;-55
2022/03/13 09:59:29;;;;;;;;;;;12.20;62.10;;;;;;5090304;28;19912;-54
2022/03/13 10:01:55;;;;;;;;;;;12.40;69.20;;;;;;5093602;28;19908;-54
2022/03/13 10:04:21;;;;;;;;;;;12.40;69.60;;;;;;5092724;28;19964;-55
2022/03/13 10:06:59;;;;;;;;;;;12.60;71.10;;;;;;5093547;28;20263;-55
2022/03/13 10:09:25;;;;;;;;;;;12.70;61.50;;;;;;5084155;28;19912;-55
2022/03/13 10:12:01;;;;;;;;;;;12.80;69.50;;;;;;5093095;28;19976;-56
2022/03/13 10:14:27;;;;;;;;;;;12.90;72.50;;;;;;5077806;28;19916;-55
2022/03/13 10:16:52;;;;;;;;;;;12.90;61.00;;;;;;5072736;28;20275;-55
2022/03/13 10:19:18;;;;;;;;;;;12.80;63.60;;;;;;5072680;28;19909;-55
2022/03/13 10:22:00;;;;;;;;;;;12.80;64.90;;;;;;5073098;28;19916;-55
2022/03/13 10:24:26;;;;;;;;;;;12.80;69.30;;;;;;5072182;28;19962;-56
2022/03/13 10:27:08;;;;;;;;;;;12.80;61.80;;;;;;5073078;28;19947;-54
2022/03/13 10:29:33;;;;;;;;;;;12.90;72.00;;;;;;5072731;28;19952;-55
2022/03/13 10:31:59;;;;;;;;;;;12.90;68.30;;;;;;5073714;28;19971;-55
2022/03/13 10:34:26;;;;;;;;;;;13.00;65.50;;;;;;5092628;28;20351;-55
2022/03/13 10:36:52;;;;;;;;;;;13.10;69.20;;;;;;5092931;28;19915;-55
2022/03/13 10:39:18;;;;;;;;;;;13.30;63.10;;;;;;5092397;28;19912;-52
2022/03/13 10:41:47;;;;;;;;;;;13.30;66.70;;;;;;5091201;28;19916;-55
2022/03/13 10:44:25;;;;;;;;;;;13.30;67.60;;;;;;5092305;28;20449;-56
2022/03/13 10:46:55;;;;;;;;;;;13.30;69.40;;;;;;5093155;28;19908;-55
2022/03/13 10:49:44;;;;;;;;;;;13.30;68.10;;;;;;5092669;28;19912;-55
2022/03/13 10:52:29;;;;;;;;;;;13.40;66.60;;;;;;5092389;28;19920;-55
2022/03/13 10:54:55;;;;;;;;;;;13.40;67.50;;;;;;5093063;28;19908;-54
2022/03/13 10:57:21;;;;;;;;;;;13.50;69.70;;;;;;5089263;28;19923;-56
2022/03/13 11:00:04;;;;;;;;;;;13.50;69.20;;;;;;5096733;28;19912;-55
2022/03/13 11:02:31;;;;;;;;;;;13.60;68.40;;;;;;5092667;28;19909;-55
2022/03/13 11:04:57;;;;;;;;;;;13.60;71.00;;;;;;5078426;28;19912;-54
2022/03/13 11:07:25;;;;;;;;;;;13.70;68.00;;;;;;5077891;28;19916;-55
2022/03/13 11:09:51;;;;;;;;;;;13.60;65.60;;;;;;5078234;28;19909;-55
2022/03/13 11:12:23;;;;;;;;;;;13.60;71.10;;;;;;5078056;28;19912;-53
2022/03/13 11:14:50;;;;;;;;;;;13.60;67.10;;;;;;5078207;28;19916;-56
2022/03/13 11:17:18;;;;;;;;;;;13.70;67.50;;;;;;5078010;28;19908;-53
2022/03/13 11:19:46;;;;;;;;;;;13.70;65.80;;;;;;5077186;28;20421;-54
2022/03/13 11:22:12;;;;;;;;;;;13.80;66.60;;;;;;5078187;28;19908;-52
2022/03/13 11:24:37;;;;;;;;;;;14.00;67.30;;;;;;5076234;28;19923;-52
2022/03/13 11:27:05;;;;;;;;;;;14.10;65.60;;;;;;5077626;28;19916;-52
2022/03/13 11:29:40;;;;;;;;;;;14.30;66.60;;;;;;5080113;28;19923;-53
2022/03/13 11:32:26;;;;;;;;;;;14.50;66.10;;;;;;5099801;28;19920;-54
2022/03/13 11:35:07;;;;;;;;;;;14.60;64.70;;;;;;5065971;28;19931;-54
2022/03/13 11:37:33;;;;;;;;;;;14.60;64.90;;;;;;5075687;28;19919;-52
2022/03/13 11:39:59;;;;;;;;;;;14.70;63.40;;;;;;5078250;28;19908;-53
2022/03/13 11:42:24;;;;;;;;;;;14.80;62.50;;;;;;5095468;28;20367;-55
2022/03/13 11:44:50;;;;;;;;;;;15.00;62.30;;;;;;5096807;28;19912;-53
2022/03/13 11:47:20;;;;;;;;;;;15.10;56.00;;;;;;5098429;28;19947;-51
2022/03/13 11:49:46;;;;;;;;;;;15.10;56.50;;;;;;5097283;28;19908;-52
2022/03/13 11:52:11;;;;;;;;;;;15.30;59.50;;;;;;5097712;28;19957;-53
2022/03/13 11:54:59;;;;;;;;;;;15.50;59.70;;;;;;5097747;28;19909;-52
2022/03/13 11:57:41;;;;;;;;;;;15.70;60.10;;;;;;5098091;28;19908;-51
2022/03/13 12:00:27;;;;;;;;;;;15.90;59.50;;;;;;5098230;28;20378;-53
2022/03/13 12:03:06;;;;;;;;;;;16.00;57.30;;;;;;5087562;28;20256;-54
2022/03/13 12:05:31;;;;;;;;;;;16.20;56.60;;;;;;5077517;28;19998;-53
2022/03/13 12:08:04;;;;;;;;;;;16.10;53.70;;;;;;5078088;28;20001;-51
2022/03/13 12:10:37;;;;;;;;;;;16.30;56.70;;;;;;5074861;28;19985;-51
2022/03/13 12:13:03;;;;;;;;;;;16.50;56.40;;;;;;5074625;28;19959;-53
2022/03/13 12:15:29;;;;;;;;;;;16.60;55.70;;;;;;5074233;28;19908;-54
2022/03/13 12:17:57;;;;;;;;;;;16.70;55.20;;;;;;5074065;28;19919;-54
2022/03/13 12:20:28;;;;;;;;;;;16.70;54.90;;;;;;5074280;28;19950;-55
2022/03/13 12:22:54;;;;;;;;;;;16.80;55.00;;;;;;5082737;28;19911;-54
2022/03/13 12:25:24;;;;;;;;;;;16.80;53.40;;;;;;5103512;28;20332;-51
2022/03/13 12:27:50;;;;;;;;;;;16.80;54.60;;;;;;5088955;28;19915;-53
2022/03/13 12:30:22;;;;;;;;;;;16.90;54.30;;;;;;5094810;28;20286;-56
2022/03/13 12:32:47;;;;;;;;;;;16.90;54.70;;;;;;5095037;28;20434;-54
2022/03/13 12:35:13;;;;;;;;;;;17.00;53.70;;;;;;5094275;28;20002;-54
2022/03/13 12:37:38;;;;;;;;;;;17.00;53.40;;;;;;5093725;28;19912;-55
2022/03/13 12:40:05;;;;;;;;;;;17.10;52.40;;;;;;5100446;28;19919;-53
2022/03/13 12:42:34;;;;;;;;;;;17.20;53.70;;;;;;5097405;28;19916;-54
2022/03/13 12:45:04;;;;;;;;;;;17.30;53.40;;;;;;5096200;28;19912;-54
2022/03/13 12:47:31;;;;;;;;;;;17.30;53.80;;;;;;5094660;28;19912;-53
2022/03/13 12:49:57;;;;;;;;;;;17.40;52.80;;;;;;5094743;28;19908;-54
2022/03/13 12:52:22;;;;;;;;;;;17.40;54.40;;;;;;5093553;28;19915;-53
2022/03/13 12:54:53;;;;;;;;;;;17.50;53.30;;;;;;5093425;28;19908;-54
2022/03/13 12:57:19;;;;;;;;;;;17.50;51.70;;;;;;5091591;28;19913;-55
2022/03/13 12:59:48;;;;;;;;;;;17.60;53.70;;;;;;5091454;28;19946;-54
2022/03/13 13:02:18;;;;;;;;;;;17.60;52.40;;;;;;5094911;28;20334;-55
2022/03/13 13:04:44;;;;;;;;;;;17.60;52.50;;;;;;5094462;28;19915;-52
2022/03/13 13:07:10;;;;;;;;;;;17.60;51.10;;;;;;5094393;28;19912;-53
2022/03/13 13:09:36;;;;;;;;;;;17.70;53.20;;;;;;5094469;28;19961;-53
2022/03/13 13:12:02;;;;;;;;;;;17.80;53.80;;;;;;5093948;28;20404;-55
2022/03/13 13:14:28;;;;;;;;;;;17.90;52.90;;;;;;5094187;28;19908;-54
2022/03/13 13:16:54;;;;;;;;;;;18.00;52.30;;;;;;5081632;28;19932;-56
2022/03/13 13:19:21;;;;;;;;;;;18.10;51.50;;;;;;5096003;28;19923;-54
2022/03/13 13:21:57;;;;;;;;;;;18.20;51.90;;;;;;5114240;28;19908;-55
2022/03/13 13:24:29;;;;;;;;;;;18.30;51.80;;;;;;5114269;28;19999;-55
2022/03/13 13:26:55;;;;;;;;;;;18.30;51.00;;;;;;5114429;28;19908;-55
2022/03/13 13:29:33;;;;;;;;;;;18.60;50.40;;;;;;5114529;28;19912;-55
2022/03/13 13:32:18;;;;;;;;;;;18.90;50.00;;;;;;5114622;28;19916;-55
2022/03/13 13:34:59;;;;;;;;;;;19.10;50.00;;;;;;5113844;28;20053;-55
2022/03/13 13:37:24;;;;;;;;;;;19.40;50.60;;;;;;5075867;28;19912;-53
2022/03/13 13:40:00;;;;;;;;;;;19.20;42.40;;;;;;5074036;28;19935;-55
2022/03/13 13:42:25;;;;;;;;;;;19.20;47.50;;;;;;5073425;28;19908;-55
2022/03/13 13:44:50;;;;;;;;;;;19.50;48.10;;;;;;5073731;28;19920;-53
2022/03/13 13:47:22;;;;;;;;;;;19.70;47.40;;;;;;5073385;28;19916;-55
2022/03/13 13:49:48;;;;;;;;;;;19.90;48.00;;;;;;5073691;28;20343;-54
2022/03/13 13:52:13;;;;;;;;;;;20.10;45.10;;;;;;5073826;28;19919;-56
2022/03/13 13:54:39;;;;;;;;;;;20.30;46.80;;;;;;5072735;28;20447;-56
2022/03/13 13:57:04;;;;;;;;;;;20.70;46.50;;;;;;5093330;28;19916;-55
2022/03/13 13:59:32;;;;;;;;;;;20.80;45.40;;;;;;5093421;28;19912;-54
2022/03/13 14:02:04;;;;;;;;;;;20.90;45.40;;;;;;5093290;28;20347;-54
2022/03/13 14:04:30;;;;;;;;;;;21.10;45.50;;;;;;5091693;28;19908;-56
2022/03/13 14:06:56;;;;;;;;;;;21.10;40.90;;;;;;5093677;28;20359;-52
2022/03/13 14:09:22;;;;;;;;;;;21.40;46.00;;;;;;5093002;28;19908;-54
2022/03/13 14:11:48;;;;;;;;;;;21.60;39.70;;;;;;5093286;28;19923;-57
2022/03/13 14:14:14;;;;;;;;;;;21.80;43.90;;;;;;5093628;28;20469;-55
2022/03/13 14:16:39;;;;;;;;;;;21.90;44.70;;;;;;5073921;28;19908;-55
2022/03/13 14:19:05;;;;;;;;;;;22.20;44.90;;;;;;5073417;28;20329;-55
2022/03/13 14:21:31;;;;;;;;;;;22.40;44.90;;;;;;5072925;28;20392;-55
2022/03/13 14:23:56;;;;;;;;;;;22.60;45.00;;;;;;5072519;28;19913;-56